Main page
METAR-TAF:

METAR-TAF

Airports :

Gao International Airport

Gao, Mali

latitude: 16-16N, longitude: 000-03W, elevation: 265 m

METAR: missing

Time: 16:11 (16:11 UTC)

Forecast

The report was made 5 hours and 11 minutes ago, at 11:00 UTC
Forecast valid from 29 at 12 UTC to 30 at 12 UTC
Wind 14 kt from the East/Northeast with gusts up to 25 kt
Visibility: 6000 m
Temporary
from 29 at 12 UTC to 29 at 18 UTC
Visibility: 4500 m
Blowing dust

TAF: GAGO 291100Z 2912/3012 06014G25KT 6000 NSC TEMPO 2912/2918 4500 BLDU

Weather observations and forecasts of more than 4000 airports (METAR and TAF reports).

The available stations are represented by yellow and red dots on the map.

Hover mouse over dot to see the name of the station.

Then click to see weather observations and forecasts.

To change the map : click on the green buttons with a black cross to zoom in, on the green button with a dash to zoom out, or on the green arrows for adjacent maps.


METAR-TAF: